TimeEDT,TemperatureF,Dew PointF,Humidity,Sea Level PressureIn,VisibilityMPH,Wind Direction,Wind SpeedMPH,Gust SpeedMPH,PrecipitationIn,Events,Conditions,WindDirDegrees,DateUTC
12:15 AM,48.2,41.0,76,30.14,10.0,SSW,4.6,-,N/A,,Clear,210,2011-10-24 04:15:00
12:35 AM,48.2,41.0,76,30.14,10.0,SW,5.8,-,N/A,,Clear,220,2011-10-24 04:35:00
12:55 AM,48.2,41.0,76,30.14,10.0,SW,5.8,-,N/A,,Clear,220,2011-10-24 04:55:00
1:15 AM,48.2,42.8,82,30.15,10.0,SW,4.6,-,N/A,,Clear,220,2011-10-24 05:15:00
1:35 AM,46.4,41.0,81,30.15,10.0,SW,4.6,-,N/A,,Clear,220,2011-10-24 05:35:00
1:55 AM,46.4,41.0,81,30.14,10.0,SSW,3.5,-,N/A,,Clear,210,2011-10-24 05:55:00
2:15 AM,46.4,41.0,81,30.15,10.0,SW,3.5,-,N/A,,Clear,230,2011-10-24 06:15:00
2:35 AM,46.4,42.8,87,30.14,10.0,WSW,4.6,-,N/A,,Clear,240,2011-10-24 06:35:00
2:55 AM,46.4,41.0,81,30.14,10.0,SW,3.5,-,N/A,,Clear,230,2011-10-24 06:55:00
3:15 AM,44.6,41.0,87,30.14,10.0,WSW,5.8,-,N/A,,Clear,250,2011-10-24 07:15:00
3:35 AM,44.6,41.0,87,30.13,10.0,WSW,3.5,-,N/A,,Clear,240,2011-10-24 07:35:00
3:55 AM,42.8,39.2,87,30.13,10.0,SW,3.5,-,N/A,,Clear,230,2011-10-24 07:55:00
4:15 AM,44.6,41.0,87,30.13,10.0,Calm,Calm,-,N/A,,Clear,0,2011-10-24 08:15:00
4:35 AM,44.6,41.0,87,30.13,10.0,West,3.5,-,N/A,,Clear,260,2011-10-24 08:35:00
4:55 AM,44.6,39.2,81,30.13,10.0,West,3.5,-,N/A,,Clear,260,2011-10-24 08:55:00
5:15 AM,44.6,41.0,87,30.13,10.0,Calm,Calm,-,N/A,,Clear,0,2011-10-24 09:15:00
5:35 AM,44.6,39.2,81,30.12,10.0,Calm,Calm,-,N/A,,Clear,0,2011-10-24 09:35:00
5:55 AM,42.8,39.2,87,30.11,10.0,Calm,Calm,-,N/A,,Clear,0,2011-10-24 09:55:00
6:15 AM,42.8,39.2,87,30.11,10.0,Calm,Calm,-,N/A,,Clear,0,2011-10-24 10:15:00
6:35 AM,42.8,41.0,93,30.12,10.0,Calm,Calm,-,N/A,,Clear,0,2011-10-24 10:35:00
6:55 AM,44.6,41.0,87,30.12,10.0,West,3.5,-,N/A,,Clear,260,2011-10-24 10:55:00
7:15 AM,44.6,41.0,87,30.12,9.0,Calm,Calm,-,N/A,,Clear,0,2011-10-24 11:15:00
7:35 AM,44.6,42.8,93,30.12,10.0,Calm,Calm,-,N/A,,Clear,0,2011-10-24 11:35:00
7:55 AM,46.4,42.8,87,30.13,9.0,Calm,Calm,-,N/A,,Clear,0,2011-10-24 11:55:00
8:15 AM,46.4,42.8,87,30.13,9.0,Calm,Calm,-,N/A,,Clear,0,2011-10-24 12:15:00
8:35 AM,48.2,44.6,87,30.13,10.0,SW,3.5,-,N/A,,Clear,230,2011-10-24 12:35:00
8:55 AM,51.8,46.4,82,30.13,9.0,SW,4.6,-,N/A,,Clear,220,2011-10-24 12:55:00
9:15 AM,53.6,46.4,77,30.13,10.0,WSW,5.8,-,N/A,,Clear,240,2011-10-24 13:15:00
9:35 AM,53.6,46.4,77,30.13,10.0,SW,5.8,-,N/A,,Clear,220,2011-10-24 13:35:00
9:55 AM,53.6,48.2,82,30.13,10.0,South,3.5,-,N/A,,Clear,190,2011-10-24 13:55:00
10:15 AM,55.4,46.4,72,30.13,10.0,SSW,5.8,-,N/A,,Clear,200,2011-10-24 14:15:00
10:35 AM,55.4,48.2,77,30.13,10.0,South,4.6,-,N/A,,Clear,180,2011-10-24 14:35:00
10:55 AM,57.2,46.4,67,30.12,10.0,SSW,5.8,-,N/A,,Clear,200,2011-10-24 14:55:00
11:15 AM,59.0,46.4,63,30.12,10.0,South,6.9,-,N/A,,Clear,170,2011-10-24 15:15:00
11:35 AM,60.8,46.4,59,30.11,10.0,SSE,10.4,-,N/A,,Clear,160,2011-10-24 15:35:00
11:55 AM,60.8,44.6,55,30.11,10.0,South,8.1,-,N/A,,Clear,190,2011-10-24 15:55:00
12:15 PM,60.8,44.6,55,30.10,10.0,South,6.9,-,N/A,,Clear,170,2011-10-24 16:15:00
12:35 PM,62.6,44.6,52,30.08,10.0,SSE,6.9,-,N/A,,Clear,160,2011-10-24 16:35:00
12:55 PM,62.6,44.6,52,30.08,10.0,SSE,5.8,-,N/A,,Clear,150,2011-10-24 16:55:00
1:15 PM,62.6,44.6,52,30.07,10.0,SSW,8.1,-,N/A,,Partly Cloudy,210,2011-10-24 17:15:00
1:35 PM,62.6,46.4,55,30.06,10.0,SE,6.9,-,N/A,,Mostly Cloudy,140,2011-10-24 17:35:00
2:35 PM,60.8,46.4,59,30.04,10.0,SE,9.2,-,N/A,,Partly Cloudy,140,2011-10-24 18:35:00
2:55 PM,62.6,48.2,59,30.03,10.0,SSE,8.1,16.1,N/A,,Partly Cloudy,160,2011-10-24 18:55:00
3:35 PM,60.8,46.4,59,30.02,10.0,SSE,9.2,-,N/A,,Clear,160,2011-10-24 19:35:00
3:55 PM,60.8,46.4,59,30.01,10.0,SSE,10.4,-,N/A,,Clear,150,2011-10-24 19:55:00
4:15 PM,59.0,46.4,63,30.01,10.0,SSE,8.1,-,N/A,,Clear,160,2011-10-24 20:15:00
4:35 PM,59.0,46.4,63,30.01,10.0,SSE,6.9,-,N/A,,Clear,160,2011-10-24 20:35:00
4:55 PM,57.2,46.4,67,30.00,10.0,SSE,5.8,-,N/A,,Clear,160,2011-10-24 20:55:00
5:15 PM,57.2,46.4,67,30.00,10.0,SSE,5.8,-,N/A,,Clear,160,2011-10-24 21:15:00
5:35 PM,57.2,46.4,67,30.01,10.0,South,5.8,-,N/A,,Clear,190,2011-10-24 21:35:00
5:55 PM,57.2,46.4,67,30.01,10.0,South,5.8,-,N/A,,Clear,190,2011-10-24 21:55:00
6:15 PM,57.2,46.4,67,30.00,10.0,South,4.6,-,N/A,,Partly Cloudy,180,2011-10-24 22:15:00
6:35 PM,57.2,46.4,67,30.00,10.0,Calm,Calm,-,N/A,,Clear,0,2011-10-24 22:35:00
6:55 PM,55.4,46.4,72,29.99,10.0,SSE,8.1,-,N/A,,Mostly Cloudy,160,2011-10-24 22:55:00
7:15 PM,55.4,46.4,72,30.00,10.0,South,4.6,-,N/A,,Overcast,190,2011-10-24 23:15:00
7:35 PM,55.4,46.4,72,30.00,10.0,South,5.8,-,N/A,,Overcast,190,2011-10-24 23:35:00
8:15 PM,55.4,46.4,72,30.00,10.0,WSW,5.8,-,N/A,,Clear,240,2011-10-25 00:15:00
8:35 PM,53.6,46.4,77,30.00,10.0,WSW,4.6,-,N/A,,Clear,240,2011-10-25 00:35:00
8:55 PM,53.6,46.4,77,30.00,10.0,WSW,4.6,-,N/A,,Clear,240,2011-10-25 00:55:00
9:15 PM,53.6,46.4,77,30.00,10.0,SW,5.8,-,N/A,,Partly Cloudy,230,2011-10-25 01:15:00
9:35 PM,53.6,46.4,77,30.00,10.0,SW,3.5,-,N/A,,Mostly Cloudy,230,2011-10-25 01:35:00
9:55 PM,53.6,46.4,77,30.00,10.0,SW,5.8,-,N/A,,Overcast,230,2011-10-25 01:55:00
10:15 PM,53.6,46.4,77,30.00,10.0,WSW,4.6,-,N/A,,Overcast,240,2011-10-25 02:15:00
10:35 PM,53.6,46.4,77,29.99,10.0,SW,6.9,-,N/A,,Overcast,230,2011-10-25 02:35:00
10:55 PM,53.6,48.2,82,30.00,10.0,WSW,5.8,-,N/A,,Overcast,250,2011-10-25 02:55:00
11:35 PM,53.6,48.2,82,29.99,10.0,WSW,5.8,-,N/A,,Mostly Cloudy,240,2011-10-25 03:35:00